<?xml version="1.0"?>
<gpx
xmlns:xsi="http://www.w3.org/2001/XMLSchema-instance"
xmlns="http://www.topografix.com/GPX/1/1"
xsi:schemaLocation="http://www.topografix.com/GPX/1/1 http://www.topografix.com/GPX/1/1/gpx.xsd"
version="1.1"
creator="iPhiGéNie-9.0.1.0 http://xn--iphignie-f1a.com/ cartes IGN sur iOS/Android; Topographic maps on iOS/Android">
<metadata>
	<name><![CDATA[exp_20 juil. 2019 à 09-01-22.gpx]]></name>
    <author><name><![CDATA[Mobile User]]></name></author>
	<time>2019-07-20T08:42:07Z</time>
</metadata>
<trk>
  <name><![CDATA[20 juil. 2019 à 09:01:22]]></name>
  <cmt><![CDATA[20 juil. 2019 à 09:01:22]]></cmt>
  <src>iPhiGéNie, cartes IGN sur iOS/Android; Topographic maps on iOS/Android</src>
  <type><![CDATA[[nouvelles]]]></type>
  <trkseg>
  <trkpt lat="42.935866" lon="1.756306">
    <ele>774</ele>
    <time>2019-07-20T07:01:23Z</time>
  </trkpt>
  <trkpt lat="42.935898" lon="1.756190">
    <ele>776</ele>
    <time>2019-07-20T07:01:36Z</time>
  </trkpt>
  <trkpt lat="42.936022" lon="1.755874">
    <ele>783</ele>
    <time>2019-07-20T07:02:05Z</time>
  </trkpt>
  <trkpt lat="42.936038" lon="1.755813">
    <ele>783</ele>
    <time>2019-07-20T07:02:09Z</time>
  </trkpt>
  <trkpt lat="42.936113" lon="1.755668">
    <ele>783</ele>
    <time>2019-07-20T07:02:28Z</time>
  </trkpt>
  <trkpt lat="42.936165" lon="1.755576">
    <ele>783</ele>
    <time>2019-07-20T07:02:40Z</time>
  </trkpt>
  <trkpt lat="42.936208" lon="1.755540">
    <ele>783</ele>
    <time>2019-07-20T07:02:44Z</time>
  </trkpt>
  <trkpt lat="42.936242" lon="1.755392">
    <ele>785</ele>
    <time>2019-07-20T07:02:56Z</time>
  </trkpt>
  <trkpt lat="42.936297" lon="1.755323">
    <ele>787</ele>
    <time>2019-07-20T07:03:06Z</time>
  </trkpt>
  <trkpt lat="42.936311" lon="1.755261">
    <ele>787</ele>
    <time>2019-07-20T07:03:12Z</time>
  </trkpt>
  <trkpt lat="42.936387" lon="1.755091">
    <ele>790</ele>
    <time>2019-07-20T07:03:27Z</time>
  </trkpt>
  <trkpt lat="42.936437" lon="1.755026">
    <ele>790</ele>
    <time>2019-07-20T07:03:35Z</time>
  </trkpt>
  <trkpt lat="42.936498" lon="1.755011">
    <ele>791</ele>
    <time>2019-07-20T07:03:43Z</time>
  </trkpt>
  <trkpt lat="42.936653" lon="1.754849">
    <ele>793</ele>
    <time>2019-07-20T07:04:02Z</time>
  </trkpt>
  <trkpt lat="42.936767" lon="1.754832">
    <ele>793</ele>
    <time>2019-07-20T07:04:13Z</time>
  </trkpt>
  <trkpt lat="42.936861" lon="1.754781">
    <ele>794</ele>
    <time>2019-07-20T07:04:22Z</time>
  </trkpt>
  <trkpt lat="42.936940" lon="1.754702">
    <ele>794</ele>
    <time>2019-07-20T07:04:31Z</time>
  </trkpt>
  <trkpt lat="42.937279" lon="1.754451">
    <ele>797</ele>
    <time>2019-07-20T07:05:07Z</time>
  </trkpt>
  <trkpt lat="42.937397" lon="1.754216">
    <ele>800</ele>
    <time>2019-07-20T07:05:30Z</time>
  </trkpt>
  <trkpt lat="42.937477" lon="1.753928">
    <ele>802</ele>
    <time>2019-07-20T07:05:56Z</time>
  </trkpt>
  <trkpt lat="42.937525" lon="1.753821">
    <ele>803</ele>
    <time>2019-07-20T07:07:03Z</time>
  </trkpt>
  <trkpt lat="42.937642" lon="1.753710">
    <ele>805</ele>
    <time>2019-07-20T07:07:19Z</time>
  </trkpt>
  <trkpt lat="42.937755" lon="1.753578">
    <ele>808</ele>
    <time>2019-07-20T07:07:39Z</time>
  </trkpt>
  <trkpt lat="42.937794" lon="1.753542">
    <ele>808</ele>
    <time>2019-07-20T07:07:43Z</time>
  </trkpt>
  <trkpt lat="42.937841" lon="1.753468">
    <ele>809</ele>
    <time>2019-07-20T07:07:51Z</time>
  </trkpt>
  <trkpt lat="42.938104" lon="1.753261">
    <ele>811</ele>
    <time>2019-07-20T07:08:22Z</time>
  </trkpt>
  <trkpt lat="42.938136" lon="1.752991">
    <ele>813</ele>
    <time>2019-07-20T07:08:41Z</time>
  </trkpt>
  <trkpt lat="42.938329" lon="1.752769">
    <ele>816</ele>
    <time>2019-07-20T07:09:14Z</time>
  </trkpt>
  <trkpt lat="42.938343" lon="1.752685">
    <ele>816</ele>
    <time>2019-07-20T07:09:33Z</time>
  </trkpt>
  <trkpt lat="42.938380" lon="1.752622">
    <ele>817</ele>
    <time>2019-07-20T07:09:46Z</time>
  </trkpt>
  <trkpt lat="42.938404" lon="1.752562">
    <ele>817</ele>
    <time>2019-07-20T07:09:52Z</time>
  </trkpt>
  <trkpt lat="42.938507" lon="1.752452">
    <ele>819</ele>
    <time>2019-07-20T07:10:07Z</time>
  </trkpt>
  <trkpt lat="42.938579" lon="1.752464">
    <ele>820</ele>
    <time>2019-07-20T07:10:13Z</time>
  </trkpt>
  <trkpt lat="42.938621" lon="1.752372">
    <ele>820</ele>
    <time>2019-07-20T07:10:26Z</time>
  </trkpt>
  <trkpt lat="42.938632" lon="1.752309">
    <ele>821</ele>
    <time>2019-07-20T07:10:31Z</time>
  </trkpt>
  <trkpt lat="42.938722" lon="1.752248">
    <ele>822</ele>
    <time>2019-07-20T07:10:46Z</time>
  </trkpt>
  <trkpt lat="42.938941" lon="1.752075">
    <ele>825</ele>
    <time>2019-07-20T07:11:14Z</time>
  </trkpt>
  <trkpt lat="42.939031" lon="1.752081">
    <ele>827</ele>
    <time>2019-07-20T07:11:26Z</time>
  </trkpt>
  <trkpt lat="42.939091" lon="1.752182">
    <ele>829</ele>
    <time>2019-07-20T07:11:44Z</time>
  </trkpt>
  <trkpt lat="42.939208" lon="1.752197">
    <ele>830</ele>
    <time>2019-07-20T07:12:02Z</time>
  </trkpt>
  <trkpt lat="42.939240" lon="1.752259">
    <ele>831</ele>
    <time>2019-07-20T07:13:02Z</time>
  </trkpt>
  <trkpt lat="42.939280" lon="1.752306">
    <ele>833</ele>
    <time>2019-07-20T07:13:20Z</time>
  </trkpt>
  <trkpt lat="42.939330" lon="1.752369">
    <ele>835</ele>
    <time>2019-07-20T07:13:32Z</time>
  </trkpt>
  <trkpt lat="42.939356" lon="1.752439">
    <ele>837</ele>
    <time>2019-07-20T07:13:44Z</time>
  </trkpt>
  <trkpt lat="42.939406" lon="1.752462">
    <ele>839</ele>
    <time>2019-07-20T07:13:56Z</time>
  </trkpt>
  <trkpt lat="42.939354" lon="1.752546">
    <ele>842</ele>
    <time>2019-07-20T07:14:13Z</time>
  </trkpt>
  <trkpt lat="42.939360" lon="1.752617">
    <ele>844</ele>
    <time>2019-07-20T07:14:27Z</time>
  </trkpt>
  <trkpt lat="42.939376" lon="1.752690">
    <ele>845</ele>
    <time>2019-07-20T07:14:39Z</time>
  </trkpt>
  <trkpt lat="42.939325" lon="1.752857">
    <ele>849</ele>
    <time>2019-07-20T07:15:03Z</time>
  </trkpt>
  <trkpt lat="42.939342" lon="1.752964">
    <ele>850</ele>
    <time>2019-07-20T07:15:15Z</time>
  </trkpt>
  <trkpt lat="42.939326" lon="1.753062">
    <ele>852</ele>
    <time>2019-07-20T07:15:27Z</time>
  </trkpt>
  <trkpt lat="42.939351" lon="1.753121">
    <ele>855</ele>
    <time>2019-07-20T07:17:45Z</time>
  </trkpt>
  <trkpt lat="42.939349" lon="1.753493">
    <ele>861</ele>
    <time>2019-07-20T07:18:27Z</time>
  </trkpt>
  <trkpt lat="42.939349" lon="1.753582">
    <ele>863</ele>
    <time>2019-07-20T07:19:57Z</time>
  </trkpt>
  <trkpt lat="42.939316" lon="1.753770">
    <ele>865</ele>
    <time>2019-07-20T07:20:15Z</time>
  </trkpt>
  <trkpt lat="42.939198" lon="1.753973">
    <ele>867</ele>
    <time>2019-07-20T07:20:39Z</time>
  </trkpt>
  <trkpt lat="42.939145" lon="1.754024">
    <ele>869</ele>
    <time>2019-07-20T07:20:51Z</time>
  </trkpt>
  <trkpt lat="42.939115" lon="1.754085">
    <ele>870</ele>
    <time>2019-07-20T07:21:03Z</time>
  </trkpt>
  <trkpt lat="42.938981" lon="1.754119">
    <ele>873</ele>
    <time>2019-07-20T07:21:28Z</time>
  </trkpt>
  <trkpt lat="42.938886" lon="1.754136">
    <ele>875</ele>
    <time>2019-07-20T07:21:41Z</time>
  </trkpt>
  <trkpt lat="42.938779" lon="1.754147">
    <ele>877</ele>
    <time>2019-07-20T07:21:59Z</time>
  </trkpt>
  <trkpt lat="42.938760" lon="1.754284">
    <ele>880</ele>
    <time>2019-07-20T07:22:17Z</time>
  </trkpt>
  <trkpt lat="42.938714" lon="1.754320">
    <ele>884</ele>
    <time>2019-07-20T07:22:57Z</time>
  </trkpt>
  <trkpt lat="42.938682" lon="1.754371">
    <ele>886</ele>
    <time>2019-07-20T07:23:52Z</time>
  </trkpt>
  <trkpt lat="42.938708" lon="1.754540">
    <ele>891</ele>
    <time>2019-07-20T07:24:29Z</time>
  </trkpt>
  <trkpt lat="42.938674" lon="1.754796">
    <ele>896</ele>
    <time>2019-07-20T07:25:05Z</time>
  </trkpt>
  <trkpt lat="42.938638" lon="1.754897">
    <ele>899</ele>
    <time>2019-07-20T07:25:17Z</time>
  </trkpt>
  <trkpt lat="42.938557" lon="1.755069">
    <ele>903</ele>
    <time>2019-07-20T07:25:41Z</time>
  </trkpt>
  <trkpt lat="42.938555" lon="1.755085">
    <ele>907</ele>
    <time>2019-07-20T07:27:41Z</time>
  </trkpt>
  <trkpt lat="42.938592" lon="1.755130">
    <ele>909</ele>
    <time>2019-07-20T07:27:53Z</time>
  </trkpt>
  <trkpt lat="42.938638" lon="1.755128">
    <ele>911</ele>
    <time>2019-07-20T07:28:05Z</time>
  </trkpt>
  <trkpt lat="42.938693" lon="1.755135">
    <ele>914</ele>
    <time>2019-07-20T07:28:23Z</time>
  </trkpt>
  <trkpt lat="42.938735" lon="1.755105">
    <ele>915</ele>
    <time>2019-07-20T07:28:35Z</time>
  </trkpt>
  <trkpt lat="42.938785" lon="1.755136">
    <ele>917</ele>
    <time>2019-07-20T07:28:47Z</time>
  </trkpt>
  <trkpt lat="42.938845" lon="1.755142">
    <ele>919</ele>
    <time>2019-07-20T07:28:59Z</time>
  </trkpt>
  <trkpt lat="42.938886" lon="1.755200">
    <ele>921</ele>
    <time>2019-07-20T07:29:11Z</time>
  </trkpt>
  <trkpt lat="42.938902" lon="1.755258">
    <ele>923</ele>
    <time>2019-07-20T07:29:29Z</time>
  </trkpt>
  <trkpt lat="42.938970" lon="1.755329">
    <ele>927</ele>
    <time>2019-07-20T07:30:05Z</time>
  </trkpt>
  <trkpt lat="42.939085" lon="1.755450">
    <ele>934</ele>
    <time>2019-07-20T07:30:47Z</time>
  </trkpt>
  <trkpt lat="42.939129" lon="1.755508">
    <ele>936</ele>
    <time>2019-07-20T07:30:58Z</time>
  </trkpt>
  <trkpt lat="42.939161" lon="1.755585">
    <ele>937</ele>
    <time>2019-07-20T07:31:08Z</time>
  </trkpt>
  <trkpt lat="42.939185" lon="1.755802">
    <ele>941</ele>
    <time>2019-07-20T07:31:43Z</time>
  </trkpt>
  <trkpt lat="42.939186" lon="1.756134">
    <ele>945</ele>
    <time>2019-07-20T07:32:21Z</time>
  </trkpt>
  <trkpt lat="42.939147" lon="1.756323">
    <ele>949</ele>
    <time>2019-07-20T07:33:09Z</time>
  </trkpt>
  <trkpt lat="42.939112" lon="1.756414">
    <ele>952</ele>
    <time>2019-07-20T07:33:21Z</time>
  </trkpt>
  <trkpt lat="42.939059" lon="1.756544">
    <ele>954</ele>
    <time>2019-07-20T07:34:05Z</time>
  </trkpt>
  <trkpt lat="42.939053" lon="1.756658">
    <ele>956</ele>
    <time>2019-07-20T07:34:17Z</time>
  </trkpt>
  <trkpt lat="42.938960" lon="1.756808">
    <ele>960</ele>
    <time>2019-07-20T07:34:41Z</time>
  </trkpt>
  <trkpt lat="42.938908" lon="1.756995">
    <ele>964</ele>
    <time>2019-07-20T07:35:23Z</time>
  </trkpt>
  <trkpt lat="42.938886" lon="1.757078">
    <ele>966</ele>
    <time>2019-07-20T07:35:35Z</time>
  </trkpt>
  <trkpt lat="42.938859" lon="1.757101">
    <ele>967</ele>
    <time>2019-07-20T07:36:14Z</time>
  </trkpt>
  <trkpt lat="42.938865" lon="1.757208">
    <ele>969</ele>
    <time>2019-07-20T07:36:26Z</time>
  </trkpt>
  <trkpt lat="42.938864" lon="1.757276">
    <ele>970</ele>
    <time>2019-07-20T07:36:38Z</time>
  </trkpt>
  <trkpt lat="42.938879" lon="1.757363">
    <ele>973</ele>
    <time>2019-07-20T07:36:56Z</time>
  </trkpt>
  <trkpt lat="42.938857" lon="1.757567">
    <ele>977</ele>
    <time>2019-07-20T07:37:26Z</time>
  </trkpt>
  <trkpt lat="42.938819" lon="1.757646">
    <ele>979</ele>
    <time>2019-07-20T07:37:38Z</time>
  </trkpt>
  <trkpt lat="42.938802" lon="1.757744">
    <ele>980</ele>
    <time>2019-07-20T07:37:50Z</time>
  </trkpt>
  <trkpt lat="42.938762" lon="1.757827">
    <ele>982</ele>
    <time>2019-07-20T07:38:02Z</time>
  </trkpt>
  <trkpt lat="42.938738" lon="1.757755">
    <ele>983</ele>
    <time>2019-07-20T07:38:15Z</time>
  </trkpt>
  <trkpt lat="42.938688" lon="1.757726">
    <ele>984</ele>
    <time>2019-07-20T07:38:30Z</time>
  </trkpt>
  <trkpt lat="42.938653" lon="1.757681">
    <ele>985</ele>
    <time>2019-07-20T07:38:35Z</time>
  </trkpt>
  <trkpt lat="42.938599" lon="1.757687">
    <ele>986</ele>
    <time>2019-07-20T07:38:44Z</time>
  </trkpt>
  <trkpt lat="42.938543" lon="1.757641">
    <ele>989</ele>
    <time>2019-07-20T07:39:02Z</time>
  </trkpt>
  <trkpt lat="42.938525" lon="1.757685">
    <ele>990</ele>
    <time>2019-07-20T07:39:45Z</time>
  </trkpt>
  <trkpt lat="42.938574" lon="1.757779">
    <ele>990</ele>
    <time>2019-07-20T07:40:51Z</time>
  </trkpt>
  <trkpt lat="42.938597" lon="1.757835">
    <ele>988</ele>
    <time>2019-07-20T07:40:56Z</time>
  </trkpt>
  <trkpt lat="42.938572" lon="1.757938">
    <ele>986</ele>
    <time>2019-07-20T07:41:10Z</time>
  </trkpt>
  <trkpt lat="42.938551" lon="1.757990">
    <ele>984</ele>
    <time>2019-07-20T07:41:21Z</time>
  </trkpt>
  <trkpt lat="42.938531" lon="1.758047">
    <ele>982</ele>
    <time>2019-07-20T07:41:31Z</time>
  </trkpt>
  <trkpt lat="42.938490" lon="1.758177">
    <ele>979</ele>
    <time>2019-07-20T07:41:55Z</time>
  </trkpt>
  <trkpt lat="42.938449" lon="1.758256">
    <ele>979</ele>
    <time>2019-07-20T07:42:07Z</time>
  </trkpt>
  <trkpt lat="42.938421" lon="1.758308">
    <ele>979</ele>
    <time>2019-07-20T07:42:13Z</time>
  </trkpt>
  <trkpt lat="42.938379" lon="1.758375">
    <ele>979</ele>
    <time>2019-07-20T07:42:21Z</time>
  </trkpt>
  <trkpt lat="42.938326" lon="1.758390">
    <ele>980</ele>
    <time>2019-07-20T07:42:30Z</time>
  </trkpt>
  <trkpt lat="42.938307" lon="1.758603">
    <ele>983</ele>
    <time>2019-07-20T07:42:50Z</time>
  </trkpt>
  <trkpt lat="42.938270" lon="1.758679">
    <ele>984</ele>
    <time>2019-07-20T07:43:02Z</time>
  </trkpt>
  <trkpt lat="42.938314" lon="1.758715">
    <ele>985</ele>
    <time>2019-07-20T07:43:37Z</time>
  </trkpt>
  <trkpt lat="42.938351" lon="1.758791">
    <ele>984</ele>
    <time>2019-07-20T07:43:45Z</time>
  </trkpt>
  <trkpt lat="42.938340" lon="1.758857">
    <ele>984</ele>
    <time>2019-07-20T07:43:57Z</time>
  </trkpt>
  <trkpt lat="42.938317" lon="1.759110">
    <ele>986</ele>
    <time>2019-07-20T07:44:23Z</time>
  </trkpt>
  <trkpt lat="42.938300" lon="1.759207">
    <ele>986</ele>
    <time>2019-07-20T07:44:37Z</time>
  </trkpt>
  <trkpt lat="42.938295" lon="1.759326">
    <ele>988</ele>
    <time>2019-07-20T07:44:49Z</time>
  </trkpt>
  <trkpt lat="42.938316" lon="1.759390">
    <ele>988</ele>
    <time>2019-07-20T07:44:55Z</time>
  </trkpt>
  <trkpt lat="42.938307" lon="1.759633">
    <ele>990</ele>
    <time>2019-07-20T07:45:29Z</time>
  </trkpt>
  <trkpt lat="42.938293" lon="1.759813">
    <ele>991</ele>
    <time>2019-07-20T07:45:56Z</time>
  </trkpt>
  <trkpt lat="42.938305" lon="1.759921">
    <ele>992</ele>
    <time>2019-07-20T07:46:14Z</time>
  </trkpt>
  <trkpt lat="42.938272" lon="1.759994">
    <ele>994</ele>
    <time>2019-07-20T07:47:22Z</time>
  </trkpt>
  <trkpt lat="42.938260" lon="1.760064">
    <ele>994</ele>
    <time>2019-07-20T07:47:28Z</time>
  </trkpt>
  <trkpt lat="42.938259" lon="1.760133">
    <ele>994</ele>
    <time>2019-07-20T07:47:33Z</time>
  </trkpt>
  <trkpt lat="42.938203" lon="1.760186">
    <ele>996</ele>
    <time>2019-07-20T07:47:44Z</time>
  </trkpt>
  <trkpt lat="42.938120" lon="1.760184">
    <ele>997</ele>
    <time>2019-07-20T07:47:56Z</time>
  </trkpt>
  <trkpt lat="42.938033" lon="1.760231">
    <ele>999</ele>
    <time>2019-07-20T07:48:06Z</time>
  </trkpt>
  <trkpt lat="42.937971" lon="1.760194">
    <ele>1000</ele>
    <time>2019-07-20T07:48:14Z</time>
  </trkpt>
  <trkpt lat="42.937912" lon="1.760132">
    <ele>1001</ele>
    <time>2019-07-20T07:48:33Z</time>
  </trkpt>
  <trkpt lat="42.937913" lon="1.760188">
    <ele>1003</ele>
    <time>2019-07-20T07:50:34Z</time>
  </trkpt>
  <trkpt lat="42.937949" lon="1.760331">
    <ele>1003</ele>
    <time>2019-07-20T07:50:49Z</time>
  </trkpt>
  <trkpt lat="42.937940" lon="1.760396">
    <ele>1002</ele>
    <time>2019-07-20T07:50:53Z</time>
  </trkpt>
  <trkpt lat="42.937915" lon="1.760458">
    <ele>1002</ele>
    <time>2019-07-20T07:50:58Z</time>
  </trkpt>
  <trkpt lat="42.937871" lon="1.760483">
    <ele>1002</ele>
    <time>2019-07-20T07:51:03Z</time>
  </trkpt>
  <trkpt lat="42.937827" lon="1.760435">
    <ele>1001</ele>
    <time>2019-07-20T07:51:35Z</time>
  </trkpt>
  <trkpt lat="42.937782" lon="1.760367">
    <ele>1000</ele>
    <time>2019-07-20T07:51:47Z</time>
  </trkpt>
  <trkpt lat="42.937723" lon="1.760354">
    <ele>996</ele>
    <time>2019-07-20T07:52:05Z</time>
  </trkpt>
  <trkpt lat="42.937672" lon="1.760424">
    <ele>994</ele>
    <time>2019-07-20T07:52:35Z</time>
  </trkpt>
  <trkpt lat="42.937608" lon="1.760572">
    <ele>990</ele>
    <time>2019-07-20T07:53:02Z</time>
  </trkpt>
  <trkpt lat="42.937601" lon="1.760644">
    <ele>990</ele>
    <time>2019-07-20T07:53:09Z</time>
  </trkpt>
  <trkpt lat="42.937575" lon="1.760774">
    <ele>990</ele>
    <time>2019-07-20T07:53:17Z</time>
  </trkpt>
  <trkpt lat="42.937461" lon="1.761063">
    <ele>992</ele>
    <time>2019-07-20T07:53:41Z</time>
  </trkpt>
  <trkpt lat="42.937344" lon="1.761248">
    <ele>992</ele>
    <time>2019-07-20T07:53:59Z</time>
  </trkpt>
  <trkpt lat="42.937287" lon="1.761343">
    <ele>991</ele>
    <time>2019-07-20T07:54:10Z</time>
  </trkpt>
  <trkpt lat="42.937270" lon="1.761497">
    <ele>990</ele>
    <time>2019-07-20T07:54:23Z</time>
  </trkpt>
  <trkpt lat="42.937267" lon="1.761573">
    <ele>990</ele>
    <time>2019-07-20T07:54:28Z</time>
  </trkpt>
  <trkpt lat="42.937241" lon="1.761724">
    <ele>988</ele>
    <time>2019-07-20T07:54:48Z</time>
  </trkpt>
  <trkpt lat="42.937267" lon="1.761863">
    <ele>987</ele>
    <time>2019-07-20T07:55:06Z</time>
  </trkpt>
  <trkpt lat="42.937281" lon="1.762006">
    <ele>985</ele>
    <time>2019-07-20T07:55:42Z</time>
  </trkpt>
  <trkpt lat="42.937290" lon="1.762189">
    <ele>985</ele>
    <time>2019-07-20T07:56:06Z</time>
  </trkpt>
  <trkpt lat="42.937298" lon="1.762370">
    <ele>986</ele>
    <time>2019-07-20T07:56:26Z</time>
  </trkpt>
  <trkpt lat="42.937277" lon="1.762453">
    <ele>986</ele>
    <time>2019-07-20T07:56:40Z</time>
  </trkpt>
  <trkpt lat="42.937279" lon="1.762540">
    <ele>986</ele>
    <time>2019-07-20T07:56:52Z</time>
  </trkpt>
  <trkpt lat="42.937260" lon="1.762634">
    <ele>986</ele>
    <time>2019-07-20T07:57:04Z</time>
  </trkpt>
  <trkpt lat="42.937271" lon="1.762701">
    <ele>986</ele>
    <time>2019-07-20T07:57:10Z</time>
  </trkpt>
  <trkpt lat="42.937277" lon="1.762800">
    <ele>985</ele>
    <time>2019-07-20T07:57:28Z</time>
  </trkpt>
  <trkpt lat="42.937237" lon="1.762947">
    <ele>985</ele>
    <time>2019-07-20T07:57:41Z</time>
  </trkpt>
  <trkpt lat="42.937145" lon="1.763122">
    <ele>984</ele>
    <time>2019-07-20T07:57:58Z</time>
  </trkpt>
  <trkpt lat="42.937151" lon="1.763190">
    <ele>984</ele>
    <time>2019-07-20T07:58:03Z</time>
  </trkpt>
  <trkpt lat="42.937198" lon="1.763242">
    <ele>984</ele>
    <time>2019-07-20T07:58:11Z</time>
  </trkpt>
  <trkpt lat="42.937215" lon="1.763303">
    <ele>983</ele>
    <time>2019-07-20T07:58:17Z</time>
  </trkpt>
  <trkpt lat="42.937189" lon="1.763366">
    <ele>982</ele>
    <time>2019-07-20T07:58:35Z</time>
  </trkpt>
  <trkpt lat="42.937255" lon="1.763479">
    <ele>982</ele>
    <time>2019-07-20T07:58:49Z</time>
  </trkpt>
  <trkpt lat="42.937251" lon="1.763551">
    <ele>981</ele>
    <time>2019-07-20T07:59:07Z</time>
  </trkpt>
  <trkpt lat="42.937307" lon="1.763555">
    <ele>979</ele>
    <time>2019-07-20T07:59:19Z</time>
  </trkpt>
  <trkpt lat="42.937358" lon="1.763574">
    <ele>978</ele>
    <time>2019-07-20T07:59:31Z</time>
  </trkpt>
  <trkpt lat="42.937428" lon="1.763583">
    <ele>976</ele>
    <time>2019-07-20T07:59:43Z</time>
  </trkpt>
  <trkpt lat="42.937471" lon="1.763551">
    <ele>976</ele>
    <time>2019-07-20T08:00:17Z</time>
  </trkpt>
  <trkpt lat="42.937475" lon="1.763477">
    <ele>974</ele>
    <time>2019-07-20T08:00:35Z</time>
  </trkpt>
  <trkpt lat="42.937525" lon="1.763501">
    <ele>969</ele>
    <time>2019-07-20T08:01:05Z</time>
  </trkpt>
  <trkpt lat="42.937603" lon="1.763638">
    <ele>966</ele>
    <time>2019-07-20T08:01:41Z</time>
  </trkpt>
  <trkpt lat="42.937671" lon="1.763778">
    <ele>965</ele>
    <time>2019-07-20T08:02:05Z</time>
  </trkpt>
  <trkpt lat="42.937649" lon="1.763917">
    <ele>962</ele>
    <time>2019-07-20T08:03:17Z</time>
  </trkpt>
  <trkpt lat="42.937727" lon="1.764003">
    <ele>962</ele>
    <time>2019-07-20T08:03:23Z</time>
  </trkpt>
  <trkpt lat="42.937695" lon="1.764120">
    <ele>960</ele>
    <time>2019-07-20T08:03:44Z</time>
  </trkpt>
  <trkpt lat="42.937801" lon="1.764196">
    <ele>957</ele>
    <time>2019-07-20T08:04:05Z</time>
  </trkpt>
  <trkpt lat="42.937841" lon="1.764085">
    <ele>955</ele>
    <time>2019-07-20T08:04:28Z</time>
  </trkpt>
  <trkpt lat="42.937910" lon="1.764198">
    <ele>953</ele>
    <time>2019-07-20T08:04:47Z</time>
  </trkpt>
  <trkpt lat="42.938074" lon="1.764160">
    <ele>947</ele>
    <time>2019-07-20T08:05:32Z</time>
  </trkpt>
  <trkpt lat="42.938123" lon="1.764057">
    <ele>945</ele>
    <time>2019-07-20T08:06:05Z</time>
  </trkpt>
  <trkpt lat="42.938144" lon="1.763950">
    <ele>944</ele>
    <time>2019-07-20T08:06:23Z</time>
  </trkpt>
  <trkpt lat="42.938162" lon="1.763935">
    <ele>941</ele>
    <time>2019-07-20T08:06:51Z</time>
  </trkpt>
  <trkpt lat="42.938245" lon="1.763992">
    <ele>939</ele>
    <time>2019-07-20T08:07:22Z</time>
  </trkpt>
  <trkpt lat="42.938342" lon="1.764045">
    <ele>938</ele>
    <time>2019-07-20T08:07:45Z</time>
  </trkpt>
  <trkpt lat="42.938390" lon="1.764006">
    <ele>937</ele>
    <time>2019-07-20T08:07:59Z</time>
  </trkpt>
  <trkpt lat="42.938471" lon="1.764033">
    <ele>935</ele>
    <time>2019-07-20T08:08:30Z</time>
  </trkpt>
  <trkpt lat="42.938527" lon="1.764086">
    <ele>936</ele>
    <time>2019-07-20T08:09:34Z</time>
  </trkpt>
  <trkpt lat="42.938561" lon="1.764211">
    <ele>936</ele>
    <time>2019-07-20T08:09:42Z</time>
  </trkpt>
  <trkpt lat="42.938549" lon="1.764294">
    <ele>936</ele>
    <time>2019-07-20T08:09:51Z</time>
  </trkpt>
  <trkpt lat="42.938532" lon="1.764364">
    <ele>935</ele>
    <time>2019-07-20T08:10:03Z</time>
  </trkpt>
  <trkpt lat="42.938526" lon="1.764446">
    <ele>931</ele>
    <time>2019-07-20T08:10:27Z</time>
  </trkpt>
  <trkpt lat="42.938499" lon="1.764539">
    <ele>929</ele>
    <time>2019-07-20T08:10:45Z</time>
  </trkpt>
  <trkpt lat="42.938470" lon="1.764608">
    <ele>928</ele>
    <time>2019-07-20T08:10:57Z</time>
  </trkpt>
  <trkpt lat="42.938441" lon="1.764686">
    <ele>926</ele>
    <time>2019-07-20T08:11:09Z</time>
  </trkpt>
  <trkpt lat="42.938424" lon="1.764755">
    <ele>926</ele>
    <time>2019-07-20T08:11:14Z</time>
  </trkpt>
  <trkpt lat="42.938387" lon="1.764873">
    <ele>927</ele>
    <time>2019-07-20T08:11:26Z</time>
  </trkpt>
  <trkpt lat="42.938296" lon="1.765063">
    <ele>928</ele>
    <time>2019-07-20T08:11:42Z</time>
  </trkpt>
  <trkpt lat="42.938180" lon="1.765211">
    <ele>928</ele>
    <time>2019-07-20T08:12:07Z</time>
  </trkpt>
  <trkpt lat="42.938071" lon="1.765262">
    <ele>929</ele>
    <time>2019-07-20T08:12:25Z</time>
  </trkpt>
  <trkpt lat="42.937950" lon="1.765476">
    <ele>928</ele>
    <time>2019-07-20T08:12:59Z</time>
  </trkpt>
  <trkpt lat="42.937912" lon="1.765752">
    <ele>930</ele>
    <time>2019-07-20T08:13:22Z</time>
  </trkpt>
  <trkpt lat="42.937858" lon="1.765853">
    <ele>932</ele>
    <time>2019-07-20T08:13:31Z</time>
  </trkpt>
  <trkpt lat="42.937725" lon="1.766200">
    <ele>931</ele>
    <time>2019-07-20T08:13:53Z</time>
  </trkpt>
  <trkpt lat="42.937656" lon="1.766588">
    <ele>927</ele>
    <time>2019-07-20T08:14:18Z</time>
  </trkpt>
  <trkpt lat="42.937653" lon="1.766804">
    <ele>924</ele>
    <time>2019-07-20T08:14:36Z</time>
  </trkpt>
  <trkpt lat="42.937624" lon="1.766930">
    <ele>922</ele>
    <time>2019-07-20T08:14:51Z</time>
  </trkpt>
  <trkpt lat="42.937542" lon="1.767020">
    <ele>922</ele>
    <time>2019-07-20T08:15:05Z</time>
  </trkpt>
  <trkpt lat="42.937390" lon="1.767254">
    <ele>923</ele>
    <time>2019-07-20T08:15:26Z</time>
  </trkpt>
  <trkpt lat="42.937356" lon="1.767379">
    <ele>921</ele>
    <time>2019-07-20T08:15:35Z</time>
  </trkpt>
  <trkpt lat="42.937292" lon="1.767478">
    <ele>920</ele>
    <time>2019-07-20T08:15:42Z</time>
  </trkpt>
  <trkpt lat="42.937261" lon="1.767594">
    <ele>919</ele>
    <time>2019-07-20T08:15:52Z</time>
  </trkpt>
  <trkpt lat="42.937198" lon="1.767714">
    <ele>918</ele>
    <time>2019-07-20T08:16:06Z</time>
  </trkpt>
  <trkpt lat="42.937057" lon="1.767895">
    <ele>916</ele>
    <time>2019-07-20T08:16:27Z</time>
  </trkpt>
  <trkpt lat="42.936985" lon="1.767969">
    <ele>917</ele>
    <time>2019-07-20T08:16:36Z</time>
  </trkpt>
  <trkpt lat="42.936763" lon="1.768145">
    <ele>915</ele>
    <time>2019-07-20T08:17:09Z</time>
  </trkpt>
  <trkpt lat="42.936493" lon="1.768138">
    <ele>912</ele>
    <time>2019-07-20T08:17:41Z</time>
  </trkpt>
  <trkpt lat="42.936262" lon="1.768347">
    <ele>907</ele>
    <time>2019-07-20T08:18:13Z</time>
  </trkpt>
  <trkpt lat="42.936087" lon="1.768454">
    <ele>904</ele>
    <time>2019-07-20T08:18:32Z</time>
  </trkpt>
  <trkpt lat="42.935976" lon="1.768410">
    <ele>897</ele>
    <time>2019-07-20T08:19:10Z</time>
  </trkpt>
  <trkpt lat="42.935946" lon="1.768284">
    <ele>895</ele>
    <time>2019-07-20T08:19:22Z</time>
  </trkpt>
  <trkpt lat="42.935865" lon="1.768152">
    <ele>894</ele>
    <time>2019-07-20T08:19:37Z</time>
  </trkpt>
  <trkpt lat="42.935712" lon="1.768118">
    <ele>892</ele>
    <time>2019-07-20T08:19:52Z</time>
  </trkpt>
  <trkpt lat="42.935530" lon="1.768128">
    <ele>889</ele>
    <time>2019-07-20T08:20:10Z</time>
  </trkpt>
  <trkpt lat="42.935293" lon="1.767990">
    <ele>886</ele>
    <time>2019-07-20T08:20:31Z</time>
  </trkpt>
  <trkpt lat="42.935105" lon="1.767741">
    <ele>881</ele>
    <time>2019-07-20T08:21:03Z</time>
  </trkpt>
  <trkpt lat="42.935080" lon="1.767666">
    <ele>880</ele>
    <time>2019-07-20T08:21:10Z</time>
  </trkpt>
  <trkpt lat="42.934993" lon="1.767477">
    <ele>875</ele>
    <time>2019-07-20T08:21:34Z</time>
  </trkpt>
  <trkpt lat="42.934902" lon="1.767401">
    <ele>873</ele>
    <time>2019-07-20T08:21:44Z</time>
  </trkpt>
  <trkpt lat="42.934851" lon="1.767372">
    <ele>872</ele>
    <time>2019-07-20T08:21:48Z</time>
  </trkpt>
  <trkpt lat="42.934804" lon="1.767360">
    <ele>870</ele>
    <time>2019-07-20T08:21:56Z</time>
  </trkpt>
  <trkpt lat="42.934630" lon="1.767296">
    <ele>866</ele>
    <time>2019-07-20T08:22:19Z</time>
  </trkpt>
  <trkpt lat="42.934477" lon="1.767243">
    <ele>865</ele>
    <time>2019-07-20T08:22:32Z</time>
  </trkpt>
  <trkpt lat="42.934445" lon="1.767197">
    <ele>864</ele>
    <time>2019-07-20T08:22:36Z</time>
  </trkpt>
  <trkpt lat="42.934353" lon="1.767018">
    <ele>862</ele>
    <time>2019-07-20T08:22:49Z</time>
  </trkpt>
  <trkpt lat="42.934334" lon="1.766948">
    <ele>861</ele>
    <time>2019-07-20T08:22:57Z</time>
  </trkpt>
  <trkpt lat="42.934290" lon="1.766826">
    <ele>859</ele>
    <time>2019-07-20T08:23:05Z</time>
  </trkpt>
  <trkpt lat="42.934280" lon="1.766501">
    <ele>857</ele>
    <time>2019-07-20T08:23:24Z</time>
  </trkpt>
  <trkpt lat="42.934329" lon="1.766234">
    <ele>855</ele>
    <time>2019-07-20T08:23:43Z</time>
  </trkpt>
  <trkpt lat="42.934333" lon="1.766101">
    <ele>855</ele>
    <time>2019-07-20T08:23:51Z</time>
  </trkpt>
  <trkpt lat="42.934357" lon="1.765976">
    <ele>855</ele>
    <time>2019-07-20T08:23:59Z</time>
  </trkpt>
  <trkpt lat="42.934353" lon="1.765838">
    <ele>855</ele>
    <time>2019-07-20T08:24:08Z</time>
  </trkpt>
  <trkpt lat="42.934366" lon="1.765575">
    <ele>853</ele>
    <time>2019-07-20T08:24:25Z</time>
  </trkpt>
  <trkpt lat="42.934474" lon="1.765348">
    <ele>852</ele>
    <time>2019-07-20T08:24:40Z</time>
  </trkpt>
  <trkpt lat="42.934552" lon="1.765274">
    <ele>852</ele>
    <time>2019-07-20T08:24:48Z</time>
  </trkpt>
  <trkpt lat="42.934731" lon="1.764989">
    <ele>847</ele>
    <time>2019-07-20T08:25:17Z</time>
  </trkpt>
  <trkpt lat="42.934815" lon="1.764679">
    <ele>842</ele>
    <time>2019-07-20T08:25:41Z</time>
  </trkpt>
  <trkpt lat="42.934999" lon="1.764387">
    <ele>838</ele>
    <time>2019-07-20T08:26:03Z</time>
  </trkpt>
  <trkpt lat="42.935051" lon="1.764139">
    <ele>836</ele>
    <time>2019-07-20T08:26:20Z</time>
  </trkpt>
  <trkpt lat="42.935049" lon="1.763982">
    <ele>835</ele>
    <time>2019-07-20T08:26:30Z</time>
  </trkpt>
  <trkpt lat="42.935123" lon="1.763751">
    <ele>833</ele>
    <time>2019-07-20T08:26:46Z</time>
  </trkpt>
  <trkpt lat="42.935178" lon="1.763658">
    <ele>831</ele>
    <time>2019-07-20T08:26:55Z</time>
  </trkpt>
  <trkpt lat="42.935191" lon="1.763520">
    <ele>829</ele>
    <time>2019-07-20T08:27:03Z</time>
  </trkpt>
  <trkpt lat="42.935145" lon="1.763285">
    <ele>826</ele>
    <time>2019-07-20T08:27:17Z</time>
  </trkpt>
  <trkpt lat="42.935150" lon="1.763025">
    <ele>823</ele>
    <time>2019-07-20T08:27:34Z</time>
  </trkpt>
  <trkpt lat="42.935143" lon="1.762893">
    <ele>821</ele>
    <time>2019-07-20T08:27:43Z</time>
  </trkpt>
  <trkpt lat="42.935155" lon="1.762763">
    <ele>820</ele>
    <time>2019-07-20T08:27:52Z</time>
  </trkpt>
  <trkpt lat="42.935134" lon="1.762629">
    <ele>819</ele>
    <time>2019-07-20T08:27:58Z</time>
  </trkpt>
  <trkpt lat="42.935130" lon="1.762367">
    <ele>818</ele>
    <time>2019-07-20T08:28:18Z</time>
  </trkpt>
  <trkpt lat="42.935028" lon="1.762041">
    <ele>817</ele>
    <time>2019-07-20T08:28:42Z</time>
  </trkpt>
  <trkpt lat="42.934952" lon="1.761812">
    <ele>814</ele>
    <time>2019-07-20T08:29:00Z</time>
  </trkpt>
  <trkpt lat="42.934882" lon="1.761675">
    <ele>812</ele>
    <time>2019-07-20T08:29:10Z</time>
  </trkpt>
  <trkpt lat="42.934813" lon="1.761592">
    <ele>812</ele>
    <time>2019-07-20T08:29:16Z</time>
  </trkpt>
  <trkpt lat="42.934632" lon="1.761545">
    <ele>808</ele>
    <time>2019-07-20T08:29:36Z</time>
  </trkpt>
  <trkpt lat="42.934620" lon="1.761394">
    <ele>804</ele>
    <time>2019-07-20T08:30:03Z</time>
  </trkpt>
  <trkpt lat="42.934725" lon="1.761175">
    <ele>802</ele>
    <time>2019-07-20T08:30:20Z</time>
  </trkpt>
  <trkpt lat="42.934822" lon="1.760808">
    <ele>801</ele>
    <time>2019-07-20T08:30:44Z</time>
  </trkpt>
  <trkpt lat="42.934917" lon="1.760183">
    <ele>795</ele>
    <time>2019-07-20T08:31:20Z</time>
  </trkpt>
  <trkpt lat="42.934925" lon="1.760055">
    <ele>794</ele>
    <time>2019-07-20T08:31:27Z</time>
  </trkpt>
  <trkpt lat="42.935017" lon="1.759690">
    <ele>792</ele>
    <time>2019-07-20T08:31:49Z</time>
  </trkpt>
  <trkpt lat="42.935050" lon="1.759562">
    <ele>792</ele>
    <time>2019-07-20T08:31:56Z</time>
  </trkpt>
  <trkpt lat="42.935051" lon="1.759433">
    <ele>792</ele>
    <time>2019-07-20T08:32:04Z</time>
  </trkpt>
  <trkpt lat="42.935122" lon="1.759280">
    <ele>792</ele>
    <time>2019-07-20T08:32:28Z</time>
  </trkpt>
  <trkpt lat="42.935137" lon="1.759145">
    <ele>790</ele>
    <time>2019-07-20T08:32:38Z</time>
  </trkpt>
  <trkpt lat="42.935110" lon="1.759014">
    <ele>789</ele>
    <time>2019-07-20T08:32:44Z</time>
  </trkpt>
  <trkpt lat="42.935105" lon="1.758766">
    <ele>787</ele>
    <time>2019-07-20T08:32:59Z</time>
  </trkpt>
  <trkpt lat="42.935002" lon="1.758255">
    <ele>783</ele>
    <time>2019-07-20T08:33:29Z</time>
  </trkpt>
  <trkpt lat="42.934941" lon="1.758116">
    <ele>781</ele>
    <time>2019-07-20T08:33:38Z</time>
  </trkpt>
  <trkpt lat="42.934938" lon="1.757987">
    <ele>779</ele>
    <time>2019-07-20T08:33:46Z</time>
  </trkpt>
  <trkpt lat="42.935008" lon="1.757746">
    <ele>776</ele>
    <time>2019-07-20T08:34:01Z</time>
  </trkpt>
  <trkpt lat="42.935110" lon="1.757533">
    <ele>775</ele>
    <time>2019-07-20T08:34:15Z</time>
  </trkpt>
  <trkpt lat="42.935177" lon="1.757428">
    <ele>774</ele>
    <time>2019-07-20T08:34:23Z</time>
  </trkpt>
  <trkpt lat="42.935215" lon="1.757318">
    <ele>772</ele>
    <time>2019-07-20T08:34:31Z</time>
  </trkpt>
  <trkpt lat="42.935366" lon="1.756971">
    <ele>772</ele>
    <time>2019-07-20T08:34:53Z</time>
  </trkpt>
  <trkpt lat="42.935407" lon="1.756848">
    <ele>773</ele>
    <time>2019-07-20T08:35:01Z</time>
  </trkpt>
  <trkpt lat="42.935449" lon="1.756726">
    <ele>775</ele>
    <time>2019-07-20T08:35:10Z</time>
  </trkpt>
  <trkpt lat="42.935532" lon="1.756673">
    <ele>776</ele>
    <time>2019-07-20T08:35:18Z</time>
  </trkpt>
  <trkpt lat="42.935714" lon="1.756451">
    <ele>778</ele>
    <time>2019-07-20T08:36:14Z</time>
  </trkpt>
  <trkpt lat="42.935744" lon="1.756401">
    <ele>777</ele>
    <time>2019-07-20T08:36:18Z</time>
  </trkpt>
  <trkpt lat="42.935793" lon="1.756348">
    <ele>777</ele>
    <time>2019-07-20T08:36:27Z</time>
  </trkpt>
  </trkseg>
</trk>
</gpx>
